• Join FlightAware (Why Join?)
  • Login
  • US Flag 
05:59PM EDT


 

Airport Tracker/Info


-or-


 

Live Flight TrackerFlight Track Log ✈ N1250V ✈ 05-Jun-2014 ✈ KTEB - KLUK

Flight Track Log - Related Links

Times and Time Zones

All times are in EDT time to prevent confusion due to time zone crossing. See the N1250V flight status page for this flight to view local times or setup timezone preferences in your user account.

Time Position Orientation Groundspeed Altitude Reporting Facility
EDT Latitude Longitude Course Direction KTS MPH feet Rate Location/Type
08:34PM 40.8667 -74.0500 21° North 151 174 1,300  Level New York TRACON
08:35PM 40.9000 -74.0333 21° North 173 199 2,900 1,320 Climbing New York TRACON
08:36PM 40.9000 -74.1000 270° West 189 217 4,000 1,440 Climbing New York TRACON
08:37PM 40.8833 -74.1833 255° West 226 260 5,800 2,160 Climbing New York TRACON
08:38PM 40.8667 -74.2500 252° West 218 251 8,400 2,460 Climbing New York TRACON
08:39PM 40.8333 -74.3167 237° Southwest 225 259 10,500 2,400 Climbing New York TRACON
08:40PM 40.8167 -74.4000 255° West 219 252 13,200 3,180 Climbing New York TRACON
08:41PM 40.8122 -74.4642 265° West 219 252 17,000 1,800 Climbing New York Center
08:42PM 40.7969 -74.5483 257° West 219 252 16,700  Descending New York Center
08:43PM 40.7778 -74.6267 252° West 238 274 17,000 600 Climbing New York Center
08:44PM 40.7575 -74.7353 256° West 281 323 17,900 1,140 Climbing New York Center
08:45PM 40.7381 -74.8217 253° West 286 329 19,300 1,440 Climbing New York Center
08:46PM 40.7178 -74.9192 255° West 281 323 20,800 1,320 Climbing New York Center
08:47PM 40.6997 -75.0192 257° West 275 316 22,000 1,140 Climbing New York Center
08:48PM 40.6717 -75.1078 247° West 275 316 23,100 1,140 Climbing New York Center
08:49PM 40.6306 -75.1983 239° Southwest 285 328 24,300 1,140 Climbing New York Center
08:50PM 40.5897 -75.2858 238° Southwest 285 328 25,400 1,020 Climbing New York Center
08:51PM 40.5508 -75.3761 240° Southwest 285 328 26,400 960 Climbing New York Center
08:52PM 40.5078 -75.4661 238° Southwest 290 334 27,300 840 Climbing New York Center
08:53PM 40.4686 -75.5561 240° Southwest 290 334 28,200 780 Climbing New York Center
08:54PM 40.4278 -75.6433 238° Southwest 285 328 28,900 660 Climbing New York Center
08:55PM 40.3886 -75.7303 239° Southwest 285 328 29,600 660 Climbing New York Center
08:56PM 40.3453 -75.8197 238° Southwest 290 334 30,300 660 Climbing New York Center
08:57PM 40.2997 -75.9092 236° Southwest 290 334 31,000 600 Climbing New York Center
08:58PM 40.2583 -75.9986 239° Southwest 290 334 31,600 540 Climbing New York Center
08:59PM 40.2167 -76.0906 239° Southwest 290 334 32,100 540 Climbing New York Center
09:00PM 40.1747 -76.1878 241° Southwest 290 334 32,700 480 Climbing New York Center
09:01PM 40.1267 -76.2792 236° Southwest 290 334 33,100 420 Climbing New York Center
09:02PM 40.0869 -76.3708 240° Southwest 290 334 33,600 420 Climbing New York Center
09:03PM 40.0428 -76.4650 239° Southwest 295 339 34,000 180 Climbing New York Center
09:04PM 39.9986 -76.5564 238° Southwest 301 346 34,000  Level New York Center
09:05PM 39.9611 -76.6428 240° Southwest 301 346 34,000  Level New York Center
09:06PM 39.9122 -76.7414 237° Southwest 311 358 34,000  Level New York Center
09:07PM 39.8719 -76.8269 238° Southwest 315 362 34,000  Level Washington Center
09:08PM 39.8292 -76.9208 239° Southwest 322 371 34,000  Level Washington Center
09:09PM 39.7822 -77.0197 238° Southwest 322 371 34,000  Level Washington Center
09:10PM 39.7331 -77.1214 238° Southwest 322 371 34,000  Level Washington Center
09:11PM 39.6861 -77.2228 239° Southwest 327 376 34,000  Level Washington Center
09:12PM 39.6367 -77.3269 238° Southwest 332 382 34,000  Level Washington Center
09:13PM 39.5872 -77.4281 238° Southwest 337 388 34,000  Level Washington Center
09:14PM 39.5375 -77.5344 239° Southwest 342 394 34,000  Level Washington Center
09:15PM 39.4900 -77.6353 239° Southwest 342 394 34,000  Level Washington Center
09:16PM 39.4403 -77.7386 238° Southwest 342 394 34,000  Level Washington Center
09:17PM 39.3928 -77.8392 239° Southwest 342 394 34,000  Level Washington Center
09:18PM 39.3511 -77.9400 242° Southwest 335 386 34,000  Level Washington Center
09:19PM 39.3094 -78.0406 242° Southwest 324 373 34,000  Level Washington Center
09:20PM 39.2700 -78.1439 244° Southwest 324 373 34,000  Level Washington Center
09:21PM 39.2325 -78.2364 242° Southwest 324 373 34,000  Level Washington Center
09:22PM 39.1928 -78.3367 243° Southwest 319 367 34,000  Level Washington Center
09:23PM 39.1528 -78.4394 243° Southwest 319 367 34,000  Level Washington Center
09:24PM 39.1108 -78.5394 242° Southwest 319 367 34,000  Level Washington Center
09:25PM 39.0708 -78.6422 243° Southwest 319 367 34,000  Level Washington Center
09:26PM 39.0286 -78.7419 241° Southwest 319 367 34,000  Level Washington Center
09:27PM 38.9861 -78.8444 242° Southwest 319 367 34,000  Level Washington Center
09:28PM 38.9458 -78.9467 243° Southwest 319 367 34,000  Level Washington Center
09:29PM 38.9036 -79.0433 241° Southwest 319 367 34,000  Level Washington Center
09:30PM 38.8631 -79.1456 243° Southwest 319 367 34,000  Level Washington Center
09:31PM 38.8411 -79.2511 255° West 314 361 34,000  Level Washington Center
09:32PM 38.8400 -79.3550 269° West 295 339 34,000  Level Washington Center
09:33PM 38.8367 -79.4561 268° West 295 339 34,000  Level Washington Center
09:34PM 38.8331 -79.5678 268° West 290 334 34,000  Level Washington Center
09:35PM 38.8358 -79.6692 272° West 290 334 34,000  Level Washington Center
09:36PM 38.8325 -79.7731 268° West 290 334 34,000  Level Washington Center
09:37PM 38.8281 -79.8867 267° West 295 339 34,000  Level Indianapolis Center
09:38PM 38.8253 -79.9922 268° West 295 339 34,000  Level Indianapolis Center
09:39PM 38.8214 -80.0981 267° West 296 341 34,000  Level Indianapolis Center
09:40PM 38.8194 -80.2036 269° West 296 341 34,000  Level Indianapolis Center
09:41PM 38.8175 -80.3086 269° West 296 341 34,000  Level Indianapolis Center
09:42PM 38.8139 -80.4128 267° West 296 341 34,000  Level Indianapolis Center
09:43PM 38.8097 -80.5178 267° West 296 341 34,000  Level Indianapolis Center
09:44PM 38.8064 -80.6403 268° West 291 335 34,000  Level Indianapolis Center
09:45PM 38.8033 -80.7417 268° West 290 334 34,000  Level Indianapolis Center
09:46PM 38.8144 -80.8408 278° West 283 326 34,000  Level Indianapolis Center
09:47PM 38.8242 -80.9408 277° West 283 326 34,000  Level Indianapolis Center
09:48PM 38.8336 -81.0417 277° West 284 327 34,000  Level Indianapolis Center
09:49PM 38.8433 -81.1417 277° West 284 327 34,000  Level Indianapolis Center
09:50PM 38.8528 -81.2406 277° West 283 326 34,000  Level Indianapolis Center
09:51PM 38.8622 -81.3392 277° West 283 326 34,000  Level Indianapolis Center
09:52PM 38.8731 -81.4572 277° West 283 326 34,000  Level Indianapolis Center
09:53PM 38.8817 -81.5553 276° West 283 326 34,000  Level Indianapolis Center
09:54PM 38.8911 -81.6542 277° West 283 326 34,000 -780 Level Indianapolis Center
09:56PM 38.8994 -81.7564 276° West 286 329 32,500 -1,680 Descending Indianapolis Center
09:57PM 38.9106 -81.8742 277° West 324 373 30,600 -1,740 Descending Indianapolis Center
09:58PM 38.9208 -81.9967 276° West 342 394 29,000 -1,620 Descending Indianapolis Center
09:59PM 38.9311 -82.1153 276° West 341 392 27,400 -1,500 Descending Indianapolis Center
10:00PM 38.9411 -82.2328 276° West 336 387 26,000 -1,560 Descending Indianapolis Center
10:01PM 38.9528 -82.3700 276° West 327 376 24,300 -1,560 Descending Indianapolis Center
10:02PM 38.9617 -82.4861 276° West 326 375 22,900 -1,140 Descending Indianapolis Center
10:03PM 38.9708 -82.6008 276° West 326 375 22,000 -840 Descending Indianapolis Center
10:04PM 38.9806 -82.7128 276° West 322 371 21,200 -1,140 Descending Indianapolis Center
10:05PM 38.9867 -82.8214 274° West 309 356 19,800 -1,500 Descending Indianapolis Center
10:06PM 38.9969 -82.9236 277° West 295 339 18,200 -1,560 Descending Indianapolis Center
10:07PM 39.0033 -83.0247 275° West 289 333 16,700 -1,560 Descending Indianapolis Center
10:08PM 39.0114 -83.1253 276° West 285 328 15,100 -1,620 Descending Indianapolis Center
10:09PM 39.0197 -83.2414 275° West 285 328 13,500 -1,440 Descending Indianapolis Center
10:10PM 39.0283 -83.3411 276° West 284 327 12,200 -1,320 Descending Indianapolis Center
10:11PM 39.0347 -83.4400 275° West 282 325 10,800 -1,260 Descending Indianapolis Center
10:12PM 39.0392 -83.5372 273° West 279 321 9,700 -1,140 Descending Indianapolis Center
10:13PM 39.0458 -83.6339 275° West 275 316 8,500 -1,380 Descending Indianapolis Center
10:14PM 39.0558 -83.7311 278° West 275 316 6,900 -1,260 Descending Indianapolis Center
10:15PM 39.0603 -83.8261 273° West 271 312 6,000 -480 Descending Indianapolis Center
10:16PM 39.0703 -83.9172 278° West 263 303 6,000 -300 Level Indianapolis Center
10:17PM 39.0742 -84.0100 273° West 260 299 5,400 -840 Descending Indianapolis Center
10:18PM 39.0808 -84.0989 276° West 255 293 4,400 -720 Descending Indianapolis Center
10:19PM 39.0903 -84.1800 279° West 243 280 4,000 -480 Descending Indianapolis Center
10:20PM 39.1039 -84.2536 283° West 227 261 3,500 -600 Descending Indianapolis Center
10:21PM 39.1333 -84.3261 298° West 206 237 2,800 -840 Descending Indianapolis Center
10:22PM 39.1469 -84.3742 290° West 179 206 1,900 -660 Descending Indianapolis Center
10:23PM 39.1294 -84.4061 235° Southwest 159 183 1,500 -420 Descending Indianapolis Center
10:25PM 39.1000 -84.4167 284° West  Level FlightAware Approximate